Time;durP1;ratioP1;P1;durP2;ratioP2;P2;SDS_P1;SDS_P2;PMS_P1;PMS_P2;Temp;Humidity;BMP_temperature;BMP_pressure;BME280_temperature;BME280_humidity;BME280_pressure;Samples;Min_cycle;Max_cycle;Signal;HPM_P1;HPM_P2
2022/01/25 00:26:18;;;;;;;57.88;35.00;;;;;;;3.48;100.00;103509.63;6233000;22;20027;-77
2022/01/25 00:31:35;;;;;;;58.45;33.17;;;;;;;3.46;100.00;103496.47;6266486;22;20484;-77
2022/01/25 00:34:03;;;;;;;55.65;33.25;;;;;;;3.46;100.00;103488.63;6266491;22;20473;-77
2022/01/25 00:36:33;;;;;;;52.88;33.97;;;;;;;3.49;100.00;103490.56;6250280;22;20030;-78
2022/01/25 00:39:04;;;;;;;58.28;34.55;;;;;;;3.48;100.00;103492.25;6236652;22;20035;-78
2022/01/25 00:41:33;;;;;;;61.33;35.88;;;;;;;3.50;100.00;103489.78;6250120;22;20019;-77
2022/01/25 00:44:02;;;;;;;56.75;35.13;;;;;;;3.51;100.00;103491.56;6223596;22;20462;-77
2022/01/25 00:46:31;;;;;;;58.90;34.92;;;;;;;3.51;100.00;103495.06;6239352;22;20031;-77
2022/01/25 00:49:02;;;;;;;63.75;35.58;;;;;;;3.50;100.00;103487.16;6250595;22;20393;-77
2022/01/25 00:54:28;;;;;;;55.22;33.30;;;;;;;3.49;100.00;103491.44;6265162;22;20047;-77
2022/01/25 00:56:57;;;;;;;59.35;33.25;;;;;;;3.49;100.00;103496.66;6273008;22;20019;-77
2022/01/25 00:59:28;;;;;;;59.55;35.08;;;;;;;3.49;100.00;103496.66;6240404;22;20019;-77
2022/01/25 01:01:59;;;;;;;61.67;36.00;;;;;;;3.50;100.00;103497.59;6258031;22;20225;-77
2022/01/25 01:04:30;;;;;;;57.55;35.10;;;;;;;3.48;100.00;103494.88;6258860;22;20023;-77
2022/01/25 01:07:05;;;;;;;55.65;33.42;;;;;;;3.45;100.00;103494.63;6272946;22;20031;-77
2022/01/25 01:09:36;;;;;;;59.85;34.97;;;;;;;3.43;100.00;103492.72;6250529;22;20015;-77
2022/01/25 01:12:12;;;;;;;59.78;34.47;;;;;;;3.42;100.00;103496.09;6235746;22;20020;-77
2022/01/25 01:31:08;;;;;;;58.97;33.33;;;;;;;3.37;100.00;103476.63;6237635;22;20023;-77
2022/01/25 01:34:10;;;;;;;58.00;33.55;;;;;;;3.37;100.00;103474.91;6228191;22;20480;-77
2022/01/25 01:47:50;;;;;;;60.88;35.63;;;;;;;3.35;100.00;103467.78;6266101;22;20024;-76
2022/01/25 01:50:28;;;;;;;60.00;33.65;;;;;;;3.37;100.00;103471.41;6271785;22;20012;-76
2022/01/25 01:52:58;;;;;;;57.42;34.83;;;;;;;3.38;100.00;103466.28;6272203;22;20560;-77
2022/01/25 01:55:27;;;;;;;58.45;34.38;;;;;;;3.38;100.00;103462.78;6246156;22;20020;-77
2022/01/25 01:57:57;;;;;;;58.30;35.17;;;;;;;3.39;100.00;103469.81;6266947;22;20027;-77
2022/01/25 02:00:34;;;;;;;61.13;36.03;;;;;;;3.39;100.00;103465.50;6268702;22;20345;-77
2022/01/25 02:03:03;;;;;;;55.50;33.83;;;;;;;3.41;100.00;103466.53;6269922;22;20378;-78
2022/01/25 02:05:34;;;;;;;61.03;35.72;;;;;;;3.42;100.00;103470.97;6231309;22;20342;-77
2022/01/25 02:08:03;;;;;;;59.92;35.05;;;;;;;3.40;100.00;103472.50;6272595;22;20016;-77
2022/01/25 02:10:32;;;;;;;56.00;34.08;;;;;;;3.37;100.00;103461.88;6266571;22;20016;-77
2022/01/25 02:13:08;;;;;;;61.97;34.50;;;;;;;3.39;100.00;103468.13;6266499;22;20024;-77
2022/01/25 02:15:38;;;;;;;61.25;34.67;;;;;;;3.38;100.00;103466.28;6258211;22;20019;-77
2022/01/25 02:23:45;;;;;;;56.10;33.58;;;;;;;3.37;100.00;103466.19;6262532;22;20019;-77
2022/01/25 02:26:14;;;;;;;56.67;34.42;;;;;;;3.35;100.00;103466.06;6242259;22;20225;-76
2022/01/25 02:28:45;;;;;;;61.65;35.53;;;;;;;3.36;100.00;103459.16;6266724;22;20012;-77
2022/01/25 02:31:14;;;;;;;;;;;;;;;3.36;100.00;103456.53;6255506;22;20193;-75
2022/01/25 02:33:44;;;;;;;57.03;33.30;;;;;;;3.35;100.00;103455.66;6274901;22;20670;-78
2022/01/25 02:36:25;;;;;;;61.83;35.53;;;;;;;3.36;100.00;103460.03;6224211;22;20031;-77
2022/01/25 02:38:57;;;;;;;60.75;33.70;;;;;;;3.36;100.00;103462.66;6271292;22;20019;-77
2022/01/25 02:41:25;;;;;;;59.53;36.00;;;;;;;3.39;100.00;103467.22;6270905;22;20024;-76
2022/01/25 02:43:55;;;;;;;60.65;34.70;;;;;;;3.39;100.00;103473.31;6264395;22;20141;-76
2022/01/25 02:49:03;;;;;;;63.22;36.83;;;;;;;3.37;100.00;103463.59;6269639;22;20233;-78
2022/01/25 02:51:41;;;;;;;59.20;35.63;;;;;;;3.34;100.00;103459.03;6260405;22;20023;-76
2022/01/25 02:54:10;;;;;;;58.50;35.92;;;;;;;3.32;100.00;103460.63;6259407;22;20016;-78
2022/01/25 02:56:42;;;;;;;61.17;34.85;;;;;;;3.31;100.00;103462.34;6214823;22;20019;-77
2022/01/25 02:59:12;;;;;;;59.22;35.63;;;;;;;3.31;100.00;103451.91;6246872;22;20204;-77
2022/01/25 03:01:42;;;;;;;62.72;36.00;;;;;;;3.31;100.00;103453.63;6270552;22;20022;-76
2022/01/25 03:04:12;;;;;;;63.03;37.63;;;;;;;3.32;100.00;103447.59;6271938;22;20189;-77
2022/01/25 03:06:42;;;;;;;55.50;34.38;;;;;;;3.30;100.00;103457.00;6262981;22;20015;-76
2022/01/25 03:09:12;;;;;;;63.22;36.67;;;;;;;3.30;100.00;103441.34;6275083;22;20284;-76
2022/01/25 03:11:41;;;;;;;60.00;34.97;;;;;;;3.29;100.00;103447.38;6280571;22;20020;-77
2022/01/25 03:14:11;;;;;;;60.70;35.03;;;;;;;3.29;100.00;103455.19;6248811;22;20019;-78
2022/01/25 03:17:04;;;;;;;60.85;35.95;;;;;;;3.28;100.00;103453.38;6240334;22;20346;-77
2022/01/25 03:22:31;;;;;;;65.97;37.45;;;;;;;3.28;100.00;103441.25;6264837;22;20551;-77
2022/01/25 03:24:59;;;;;;;58.58;33.85;;;;;;;3.29;100.00;103442.16;6271177;22;20023;-77
2022/01/25 03:27:28;;;;;;;63.58;37.35;;;;;;;3.32;100.00;103437.16;6272036;22;20528;-76
2022/01/25 03:29:56;;;;;;;60.65;35.33;;;;;;;3.31;100.00;103440.59;6250675;22;20284;-76
2022/01/25 03:32:25;;;;;;;62.60;36.45;;;;;;;3.30;100.00;103433.53;6243711;22;20019;-78
2022/01/25 03:34:53;;;;;;;61.28;36.60;;;;;;;3.31;100.00;103435.38;6263183;22;20038;-78
2022/01/25 03:37:22;;;;;;;63.72;36.33;;;;;;;3.31;100.00;103445.78;6266027;22;20024;-76
2022/01/25 03:39:50;;;;;;;62.25;37.05;;;;;;;3.28;100.00;103435.13;6244071;22;20026;-77
2022/01/25 03:42:19;;;;;;;58.47;36.65;;;;;;;3.26;100.00;103440.22;6276198;22;20016;-77
2022/01/25 03:44:49;;;;;;;61.95;35.10;;;;;;;3.27;100.00;103435.91;6246977;22;20020;-77
2022/01/25 03:47:29;;;;;;;59.53;35.50;;;;;;;3.26;100.00;103429.78;6242321;22;20020;-78
2022/01/25 03:49:58;;;;;;;65.35;36.33;;;;;;;3.28;100.00;103430.81;6246901;22;20020;-76
2022/01/25 03:52:32;;;;;;;62.60;33.83;;;;;;;3.30;100.00;103437.03;6180333;22;20031;-76
2022/01/25 03:55:01;;;;;;;64.85;37.40;;;;;;;3.32;100.00;103437.16;6269678;22;20030;-76
2022/01/25 03:57:29;;;;;;;63.33;35.58;;;;;;;3.34;100.00;103437.28;6243384;22;20466;-76
2022/01/25 03:59:59;;;;;;;60.58;36.33;;;;;;;3.34;100.00;103440.78;6265333;22;20601;-77
2022/01/25 04:02:32;;;;;;;60.03;37.22;;;;;;;3.35;100.00;103433.91;6199899;22;20035;-77
2022/01/25 04:05:01;;;;;;;58.30;36.33;;;;;;;3.36;100.00;103438.31;6205264;22;20020;-77
2022/01/25 04:07:43;;;;;;;64.22;37.35;;;;;;;3.38;100.00;103442.81;6255902;22;20023;-77
2022/01/25 04:10:13;;;;;;;60.85;35.25;;;;;;;3.38;100.00;103437.59;6271855;22;20030;-77
2022/01/25 04:12:42;;;;;;;62.28;35.08;;;;;;;3.39;100.00;103438.53;6265949;22;20016;-76
2022/01/25 04:15:10;;;;;;;62.10;35.38;;;;;;;3.38;100.00;103435.00;6273212;22;20024;-77
2022/01/25 04:17:42;;;;;;;62.60;36.15;;;;;;;3.38;100.00;103427.19;6233756;22;20012;-78
2022/01/25 04:20:23;;;;;;;59.88;35.33;;;;;;;3.40;100.00;103435.13;6269113;22;20136;-76
2022/01/25 04:25:38;;;;;;;60.72;34.70;;;;;;;3.38;100.00;103431.50;6263129;22;20027;-77
2022/01/25 04:28:07;;;;;;;63.05;36.25;;;;;;;3.34;100.00;103429.47;6267994;22;20020;-77
2022/01/25 04:30:39;;;;;;;60.42;36.33;;;;;;;3.32;100.00;103424.13;6275125;22;20012;-76
2022/01/25 04:33:18;;;;;;;65.28;36.53;;;;;;;3.31;100.00;103428.44;6243361;22;20156;-77
2022/01/25 04:50:08;;;;;;;61.10;36.53;;;;;;;3.32;100.00;103418.91;6271103;22;20047;-77
2022/01/25 04:52:49;;;;;;;57.72;35.92;;;;;;;3.31;100.00;103418.03;6263052;22;20020;-77
2022/01/25 04:55:26;;;;;;;62.75;36.33;;;;;;;3.28;100.00;103415.19;6255526;22;20019;-77
2022/01/25 04:58:06;;;;;;;62.30;36.55;;;;;;;3.28;100.00;103417.78;6243299;22;20125;-78
2022/01/25 05:00:34;;;;;;;65.50;35.20;;;;;;;3.29;100.00;103419.59;6276949;22;20346;-78
2022/01/25 05:03:13;;;;;;;55.80;32.55;;;;;;;3.30;100.00;103417.91;6269324;22;20531;-77
2022/01/25 05:06:04;;;;;;;58.22;34.88;;;;;;;3.31;100.00;103423.22;6264095;22;20163;-76
2022/01/25 05:08:44;;;;;;;60.40;35.22;;;;;;;3.32;100.00;103422.41;6255375;22;20018;-77
2022/01/25 05:11:22;;;;;;;59.08;35.08;;;;;;;3.32;100.00;103419.81;6261400;22;20011;-77
2022/01/25 05:14:11;;;;;;;63.63;35.08;;;;;;;3.34;100.00;103432.97;6219494;22;20020;-76
2022/01/25 05:17:04;;;;;;;66.80;36.90;;;;;;;3.35;100.00;103418.25;6271883;22;20023;-78
2022/01/25 05:22:21;;;;;;;64.60;37.20;;;;;;;3.35;100.00;103433.91;6272393;22;20020;-76
2022/01/25 05:24:50;;;;;;;61.63;36.55;;;;;;;3.35;100.00;103428.69;6270840;22;20043;-76
2022/01/25 05:27:22;;;;;;;62.38;36.03;;;;;;;3.35;100.00;103428.69;6261124;22;20015;-77
2022/01/25 05:29:51;;;;;;;64.50;36.90;;;;;;;3.35;100.00;103426.97;6231666;22;20346;-76
2022/01/25 05:32:19;;;;;;;61.75;36.40;;;;;;;3.38;100.00;103434.09;6264091;22;20020;-76
2022/01/25 05:34:49;;;;;;;63.63;36.85;;;;;;;3.35;100.00;103426.97;6208061;22;20034;-77
2022/01/25 05:37:18;;;;;;;63.65;38.88;;;;;;;3.35;100.00;103419.16;6269895;22;20019;-76
2022/01/25 05:39:49;;;;;;;65.72;35.60;;;;;;;3.35;100.00;103415.66;6235903;22;20422;-76
2022/01/25 05:42:29;;;;;;;46.78;26.83;;;;;;;3.35;100.00;103419.16;6245928;22;20748;-77
2022/01/25 05:45:17;;;;;;;64.53;36.80;;;;;;;3.34;100.00;103419.03;6266714;22;20020;-77
2022/01/25 05:47:46;;;;;;;64.00;36.28;;;;;;;3.34;100.00;103419.03;6212364;22;20083;-77
2022/01/25 05:50:15;;;;;;;69.35;39.90;;;;;;;3.33;100.00;103420.75;6276877;22;20016;-76
2022/01/25 05:52:44;;;;;;;64.28;36.50;;;;;;;3.34;100.00;103424.25;6268078;22;20022;-76
2022/01/25 05:55:12;;;;;;;57.95;36.08;;;;;;;3.33;100.00;103431.16;6276680;22;20020;-77
2022/01/25 05:57:41;;;;;;;61.60;35.75;;;;;;;3.34;100.00;103421.66;6233907;22;20012;-76
2022/01/25 06:00:10;;;;;;;66.32;35.95;;;;;;;3.35;100.00;103424.38;6274957;22;20031;-77
2022/01/25 06:02:38;;;;;;;66.30;37.38;;;;;;;3.35;100.00;103419.16;6280623;22;20019;-77
2022/01/25 06:05:07;;;;;;;60.38;36.83;;;;;;;3.37;100.00;103421.88;6279421;22;20020;-77
2022/01/25 06:07:36;;;;;;;65.57;38.70;;;;;;;3.39;100.00;103422.91;6247576;22;20023;-77
2022/01/25 06:10:04;;;;;;;62.60;37.03;;;;;;;3.37;100.00;103417.56;6270432;22;20023;-77
2022/01/25 06:12:33;;;;;;;68.15;37.30;;;;;;;3.38;100.00;103429.78;6237481;22;20019;-77
2022/01/25 06:15:02;;;;;;;64.72;36.85;;;;;;;3.40;100.00;103430.81;6244422;22;20024;-76
2022/01/25 06:17:30;;;;;;;60.05;35.38;;;;;;;3.40;100.00;103433.41;6234338;22;20357;-77
2022/01/25 06:19:59;;;;;;;67.45;38.47;;;;;;;3.41;100.00;103426.53;6272891;22;20015;-77
2022/01/25 06:22:27;;;;;;;63.50;36.95;;;;;;;3.42;100.00;103429.25;6226156;22;20022;-77
2022/01/25 06:24:56;;;;;;;61.67;36.53;;;;;;;3.45;100.00;103429.44;6213519;22;20132;-78
2022/01/25 06:27:25;;;;;;;63.00;37.22;;;;;;;3.44;100.00;103432.88;6243526;22;20020;-77
2022/01/25 06:29:54;;;;;;;68.93;38.75;;;;;;;3.45;100.00;103437.28;6242279;22;20125;-77
2022/01/25 06:32:22;;;;;;;65.05;37.17;;;;;;;3.44;100.00;103435.47;6238061;22;20070;-77
2022/01/25 06:34:53;;;;;;;63.63;35.92;;;;;;;3.44;100.00;103432.88;6235103;22;20547;-76
2022/01/25 06:37:21;;;;;;;63.33;37.47;;;;;;;3.46;100.00;103431.28;6242808;22;20030;-77
2022/01/25 06:39:50;;;;;;;61.47;36.65;;;;;;;3.47;100.00;103422.66;6260220;22;20930;-76
2022/01/25 06:42:18;;;;;;;64.35;36.10;;;;;;;3.49;100.00;103430.59;6228638;22;20023;-77
2022/01/25 06:44:47;;;;;;;61.83;37.30;;;;;;;3.50;100.00;103429.81;6257086;22;20019;-77
2022/01/25 06:47:15;;;;;;;66.55;37.65;;;;;;;3.51;100.00;103429.00;6204293;22;20028;-77
2022/01/25 06:49:43;;;;;;;63.63;36.70;;;;;;;3.52;100.00;103425.63;6224092;22;20015;-76
2022/01/25 06:52:12;;;;;;;65.72;37.00;;;;;;;3.53;100.00;103421.28;6237703;22;20016;-77
2022/01/25 06:54:41;;;;;;;60.47;36.67;;;;;;;3.53;100.00;103427.41;6230044;22;20026;-77
2022/01/25 06:57:09;;;;;;;63.13;37.55;;;;;;;3.53;100.00;103421.28;6239944;22;20349;-77
2022/01/25 06:59:38;;;;;;;69.38;38.85;;;;;;;3.54;100.00;103430.94;6256743;22;20804;-77
2022/01/25 07:02:08;;;;;;;61.40;37.30;;;;;;;3.55;100.00;103432.75;6268495;22;20035;-79
2022/01/25 07:04:38;;;;;;;71.00;39.17;;;;;;;3.54;100.00;103436.16;6268265;22;20473;-79
2022/01/25 07:07:07;;;;;;;62.80;37.22;;;;;;;3.55;100.00;103435.34;6273273;22;20020;-79
2022/01/25 07:09:36;;;;;;;62.53;36.90;;;;;;;3.56;100.00;103429.34;6244743;22;20030;-78
2022/01/25 07:12:04;;;;;;;71.10;38.53;;;;;;;3.56;100.00;103435.47;6273565;22;20066;-78
2022/01/25 07:14:34;;;;;;;48.30;28.53;;;;;;;3.55;100.00;103431.03;6263162;22;20030;-77
2022/01/25 07:17:02;;;;;;;68.55;37.47;;;;;;;3.55;100.00;103425.81;6210303;22;20016;-80
2022/01/25 07:19:31;;;;;;;69.07;37.88;;;;;;;3.54;100.00;103423.13;6260188;22;20019;-78
2022/01/25 07:21:59;;;;;;;64.55;37.33;;;;;;;3.54;100.00;103424.03;6274155;22;20016;-79
2022/01/25 07:24:28;;;;;;;67.38;37.15;;;;;;;3.52;100.00;103417.78;6256892;22;20018;-79
2022/01/25 07:26:56;;;;;;;71.50;40.05;;;;;;;3.48;100.00;103416.66;6207081;22;20472;-78
2022/01/25 07:29:27;;;;;;;52.50;30.55;;;;;;;3.44;100.00;103419.84;6266598;22;20215;-77
2022/01/25 07:31:56;;;;;;;67.75;37.92;;;;;;;3.42;100.00;103423.09;6263765;22;20349;-79
2022/01/25 07:34:24;;;;;;;65.28;38.58;;;;;;;3.41;100.00;103427.41;6264532;22;20708;-77
2022/01/25 07:37:06;;;;;;;69.93;38.25;;;;;;;3.42;100.00;103426.66;6238864;22;20023;-78
2022/01/25 07:39:35;;;;;;;64.43;39.08;;;;;;;3.40;100.00;103429.91;6268261;22;20527;-78
2022/01/25 07:42:04;;;;;;;69.30;38.58;;;;;;;3.39;100.00;103423.78;6257101;22;20033;-78
2022/01/25 07:44:42;;;;;;;65.80;37.03;;;;;;;3.39;100.00;103426.41;6242907;22;20023;-78
2022/01/25 07:47:15;;;;;;;65.78;37.55;;;;;;;3.38;100.00;103427.19;6262223;22;20019;-78
2022/01/25 07:49:57;;;;;;;68.15;37.70;;;;;;;3.40;100.00;103424.69;6261102;22;20528;-79
2022/01/25 07:52:31;;;;;;;72.60;40.08;;;;;;;3.40;100.00;103428.19;6233928;22;20015;-78
2022/01/25 07:55:00;;;;;;;67.68;37.65;;;;;;;3.42;100.00;103425.72;6254811;22;20050;-79
2022/01/25 07:57:29;;;;;;;72.07;40.65;;;;;;;3.42;100.00;103418.81;6220610;22;20022;-78
2022/01/25 07:59:58;;;;;;;67.43;38.80;;;;;;;3.43;100.00;103431.03;6265839;22;20026;-78
2022/01/25 08:02:26;;;;;;;66.60;37.90;;;;;;;3.45;100.00;103437.28;6258822;22;20034;-78
2022/01/25 08:04:56;;;;;;;67.32;38.58;;;;;;;3.46;100.00;103432.97;6247094;22;20019;-77
2022/01/25 08:07:25;;;;;;;69.20;36.60;;;;;;;3.48;100.00;103434.91;6277979;22;20461;-78
2022/01/25 08:10:00;;;;;;;70.50;37.72;;;;;;;3.49;100.00;103430.59;6210552;22;20318;-79
2022/01/25 08:12:35;;;;;;;71.50;39.95;;;;;;;3.50;100.00;103419.38;6220924;22;20019;-79
2022/01/25 08:15:16;;;;;;;65.13;37.03;;;;;;;3.50;100.00;103429.81;6233046;22;20007;-78
2022/01/25 08:17:49;;;;;;;66.43;36.70;;;;;;;3.51;100.00;103423.78;6231394;22;20022;-78
2022/01/25 08:20:35;;;;;;;70.85;38.17;;;;;;;3.53;100.00;103435.22;6283032;22;20098;-77
2022/01/25 08:23:34;;;;;;;71.05;38.88;;;;;;;3.50;100.00;103433.31;6245366;22;20020;-78
2022/01/25 08:26:06;;;;;;;70.53;38.00;;;;;;;3.51;100.00;103435.09;6237644;22;20396;-77
2022/01/25 08:28:52;;;;;;;72.40;38.40;;;;;;;3.51;100.00;103435.09;6253570;22;20016;-79
2022/01/25 08:31:29;;;;;;;70.80;40.45;;;;;;;3.52;100.00;103433.44;6223512;22;20016;-79
2022/01/25 08:34:13;;;;;;;75.40;39.33;;;;;;;3.51;100.00;103437.72;6211179;22;20023;-79
2022/01/25 08:37:00;;;;;;;71.18;37.30;;;;;;;3.49;100.00;103441.91;6253620;22;20344;-79
2022/01/25 08:39:30;;;;;;;70.85;37.95;;;;;;;3.49;100.00;103433.19;6277955;22;20023;-77
2022/01/25 08:42:03;;;;;;;74.78;40.15;;;;;;;3.53;100.00;103447.38;6249669;22;20026;-77
2022/01/25 08:44:35;;;;;;;72.68;37.45;;;;;;;3.54;100.00;103443.97;6278350;22;20343;-78
2022/01/25 08:47:07;;;;;;;68.00;37.72;;;;;;;3.55;100.00;103445.78;6233655;22;20221;-77
2022/01/25 08:49:38;;;;;;;75.55;39.58;;;;;;;3.57;100.00;103445.09;6236803;22;20461;-79
2022/01/25 08:52:06;;;;;;;77.28;40.80;;;;;;;3.58;100.00;103435.59;6271297;22;20015;-78
2022/01/25 08:54:36;;;;;;;70.10;39.72;;;;;;;3.57;100.00;103442.47;6266168;22;20016;-78
2022/01/25 08:57:22;;;;;;;70.40;38.08;;;;;;;3.58;100.00;103446.00;6224381;22;20555;-77
2022/01/25 08:59:54;;;;;;;76.75;40.72;;;;;;;3.58;100.00;103435.59;6264219;22;20016;-77
2022/01/25 09:02:24;;;;;;;67.80;40.17;;;;;;;3.56;100.00;103443.28;6272054;22;20023;-79
2022/01/25 09:04:53;;;;;;;68.47;37.00;;;;;;;3.56;100.00;103445.91;6237107;22;20031;-80
2022/01/25 09:07:22;;;;;;;76.50;40.55;;;;;;;3.54;100.00;103444.88;6240186;22;20024;-77
2022/01/25 09:09:50;;;;;;;73.53;38.95;;;;;;;3.53;100.00;103439.53;6270379;22;20011;-77
2022/01/25 09:12:19;;;;;;;77.20;40.17;;;;;;;3.53;100.00;103431.72;6268075;22;20355;-77
2022/01/25 09:14:48;;;;;;;76.35;38.15;;;;;;;3.56;100.00;103435.47;6247726;22;20032;-78
2022/01/25 09:17:16;;;;;;;72.50;39.00;;;;;;;3.57;100.00;103447.69;6220210;22;20031;-78
2022/01/25 09:19:45;;;;;;;72.30;39.42;;;;;;;3.56;100.00;103445.91;6261751;22;20491;-78
2022/01/25 09:22:14;;;;;;;71.40;36.95;;;;;;;3.55;100.00;103444.06;6276691;22;20022;-78
2022/01/25 09:24:42;;;;;;;73.32;38.13;;;;;;;3.56;100.00;103447.59;6269001;22;20780;-78
2022/01/25 09:27:12;;;;;;;66.00;38.45;;;;;;;3.56;100.00;103442.38;6215086;22;20020;-78
2022/01/25 09:29:41;;;;;;;81.70;40.83;;;;;;;3.56;100.00;103448.50;6240277;22;20018;-78
2022/01/25 09:32:10;;;;;;;73.47;38.35;;;;;;;3.57;100.00;103446.78;6208915;22;20045;-77
2022/01/25 09:34:38;;;;;;;71.25;39.40;;;;;;;3.57;100.00;103457.22;6264422;22;20012;-78
2022/01/25 09:37:07;;;;;;;70.70;38.80;;;;;;;3.56;100.00;103455.44;6202786;22;20047;-78
2022/01/25 09:39:36;;;;;;;72.35;37.80;;;;;;;3.57;100.00;103452.00;6240043;22;20031;-79
2022/01/25 09:42:08;;;;;;;71.72;40.85;;;;;;;3.57;100.00;103452.91;6259369;22;20019;-78
2022/01/25 09:44:39;;;;;;;72.45;38.38;;;;;;;3.60;100.00;103466.19;6233251;22;20446;-79
2022/01/25 09:47:10;;;;;;;71.53;40.20;;;;;;;3.60;100.00;103465.28;6249028;22;20027;-79
2022/01/25 09:49:40;;;;;;;75.07;39.08;;;;;;;3.60;100.00;103465.28;6225720;22;20015;-78
2022/01/25 09:52:09;;;;;;;77.85;40.42;;;;;;;3.60;100.00;103465.28;6262440;22;20027;-77
2022/01/25 09:54:38;;;;;;;74.10;38.15;;;;;;;3.61;100.00;103468.00;6251975;22;20133;-77
2022/01/25 09:57:07;;;;;;;73.63;40.15;;;;;;;3.63;100.00;103473.31;6262193;22;20026;-78
2022/01/25 09:59:36;;;;;;;70.78;38.58;;;;;;;3.64;100.00;103476.03;6274044;22;20011;-77
2022/01/25 10:02:08;;;;;;;76.13;40.90;;;;;;;3.63;100.00;103476.84;6242770;22;20019;-78
2022/01/25 10:04:39;;;;;;;79.88;40.13;;;;;;;3.63;100.00;103481.13;6241026;22;20023;-78
2022/01/25 10:07:10;;;;;;;75.97;41.03;;;;;;;3.61;100.00;103478.44;6165578;22;20024;-78
2022/01/25 10:09:41;;;;;;;76.72;39.70;;;;;;;3.61;100.00;103477.50;6227980;22;20024;-78
2022/01/25 10:12:21;;;;;;;76.35;40.72;;;;;;;3.60;100.00;103486.16;6241769;22;20468;-78
2022/01/25 10:15:02;;;;;;;75.95;40.42;;;;;;;3.60;100.00;103489.66;6247513;22;20016;-80
2022/01/25 10:17:32;;;;;;;73.60;39.78;;;;;;;3.59;100.00;103490.47;6270945;22;20019;-78
2022/01/25 10:20:04;;;;;;;76.45;40.65;;;;;;;3.61;100.00;103493.16;6270166;22;20353;-78
2022/01/25 10:22:45;;;;;;;76.88;41.03;;;;;;;3.63;100.00;103494.16;6208876;22;20035;-78
2022/01/25 10:25:34;;;;;;;73.43;40.78;;;;;;;3.61;100.00;103496.69;6197374;22;20500;-78
2022/01/25 10:28:10;;;;;;;84.00;42.08;;;;;;;3.61;100.00;103493.16;6269233;22;20016;-78
2022/01/25 10:31:03;;;;;;;78.97;40.17;;;;;;;3.61;100.00;103498.38;6235336;22;20031;-79
2022/01/25 10:33:44;;;;;;;76.97;39.58;;;;;;;3.60;100.00;103496.56;6235666;22;20216;-78
2022/01/25 10:36:32;;;;;;;79.43;40.70;;;;;;;3.61;100.00;103503.59;6274212;22;20249;-78
2022/01/25 10:39:01;;;;;;;81.32;41.33;;;;;;;3.61;100.00;103499.31;6226661;22;20020;-78
2022/01/25 10:41:31;;;;;;;86.55;42.20;;;;;;;3.62;100.00;103500.19;6220380;22;20559;-78
2022/01/25 10:44:00;;;;;;;74.15;40.05;;;;;;;3.63;100.00;103496.78;6221994;22;20078;-78
2022/01/25 10:46:31;;;;;;;75.43;40.47;;;;;;;3.61;100.00;103494.09;6238345;22;20016;-79
2022/01/25 10:49:05;;;;;;;80.20;39.63;;;;;;;3.59;100.00;103490.47;6215896;22;20019;-78
2022/01/25 10:51:38;;;;;;;85.72;42.58;;;;;;;3.60;100.00;103502.69;6239961;22;20015;-77
2022/01/25 10:54:38;;;;;;;81.28;40.72;;;;;;;3.62;100.00;103497.59;6232375;22;20035;-78
2022/01/25 10:57:20;;;;;;;82.75;41.60;;;;;;;3.63;100.00;103488.97;6274879;22;20020;-78
2022/01/25 11:00:10;;;;;;;81.63;42.17;;;;;;;3.66;100.00;103497.91;6270440;22;20026;-79
2022/01/25 11:02:54;;;;;;;84.57;43.10;;;;;;;3.67;100.00;103494.53;6270020;22;20349;-78
2022/01/25 11:05:23;;;;;;;83.15;42.08;;;;;;;3.66;100.00;103492.69;6263349;22;20227;-78
2022/01/25 11:07:52;;;;;;;84.82;40.63;;;;;;;3.68;100.00;103498.03;6277472;22;20063;-78
2022/01/25 11:10:22;;;;;;;86.30;42.13;;;;;;;3.69;100.00;103492.03;6235871;22;20034;-79
2022/01/25 11:13:04;;;;;;;87.35;43.08;;;;;;;3.70;100.00;103491.22;6269975;22;20035;-80
2022/01/25 11:15:35;;;;;;;86.82;41.47;;;;;;;3.71;100.00;103486.13;6263985;22;20019;-82
2022/01/25 11:18:05;;;;;;;81.70;40.67;;;;;;;3.72;100.00;103479.22;6209278;22;20034;-80
2022/01/25 11:20:34;;;;;;;87.53;41.90;;;;;;;3.73;100.00;103478.44;6206270;22;20461;-78
2022/01/25 11:23:03;;;;;;;93.60;44.58;;;;;;;3.74;100.00;103474.09;6201289;22;20661;-80
2022/01/25 11:25:37;;;;;;;86.25;41.38;;;;;;;3.74;100.00;103472.41;6140362;22;20115;-78
2022/01/25 11:28:06;;;;;;;81.45;40.25;;;;;;;3.73;100.00;103478.44;6211874;22;20717;-78
2022/01/25 11:30:38;;;;;;;84.25;42.28;;;;;;;3.75;100.00;103471.63;6208298;22;20031;-78
2022/01/25 11:33:10;;;;;;;89.65;40.85;;;;;;;3.75;100.00;103469.00;6169554;22;20565;-78
2022/01/25 11:35:40;;;;;;;81.20;41.85;;;;;;;3.73;100.00;103449.75;6212014;22;20030;-79
2022/01/25 11:38:09;;;;;;;94.32;41.63;;;;;;;3.73;100.00;103457.56;6205183;22;20338;-79
2022/01/25 11:40:46;;;;;;;93.22;42.05;;;;;;;3.75;100.00;103455.06;6203403;22;20024;-80
2022/01/25 11:43:16;;;;;;;88.13;41.85;;;;;;;3.74;100.00;103451.53;6191577;22;20019;-79
2022/01/25 11:45:50;;;;;;;92.47;41.70;;;;;;;3.73;100.00;103454.94;6268478;22;20019;-79
2022/01/25 11:48:22;;;;;;;86.45;41.17;;;;;;;3.69;100.00;103451.22;6229047;22;20615;-79
2022/01/25 11:50:51;;;;;;;87.70;42.88;;;;;;;3.68;100.00;103446.78;6261301;22;20024;-81
2022/01/25 11:53:24;;;;;;;85.38;41.25;;;;;;;3.71;100.00;103448.72;6213443;22;20369;-79
2022/01/25 11:55:54;;;;;;;92.78;42.22;;;;;;;3.74;100.00;103448.03;6263697;22;20057;-81
2022/01/25 11:58:29;;;;;;;84.83;42.20;;;;;;;3.73;100.00;103441.91;6195752;22;20015;-81
2022/01/25 12:01:22;;;;;;;90.30;42.08;;;;;;;3.69;100.00;103432.97;6275201;22;20357;-81
2022/01/25 12:04:00;;;;;;;102.85;43.55;;;;;;;3.72;100.00;103432.25;6260845;22;20024;-80
2022/01/25 12:06:33;;;;;;;94.90;42.35;;;;;;;3.71;100.00;103438.28;6272645;22;20016;-80
2022/01/25 12:09:15;;;;;;;87.13;40.08;;;;;;;3.71;100.00;103433.97;6214057;22;20024;-80
2022/01/25 12:11:59;;;;;;;88.63;40.63;;;;;;;3.72;100.00;103434.88;6277199;22;20015;-80
2022/01/25 12:14:41;;;;;;;96.35;41.42;;;;;;;3.72;100.00;103434.88;6210563;22;20024;-80
2022/01/25 12:17:15;;;;;;;87.03;41.35;;;;;;;3.67;100.00;103436.25;6261243;22;20019;-81
2022/01/25 12:19:53;;;;;;;99.72;44.20;;;;;;;3.68;100.00;103432.84;6270059;22;20469;-80
2022/01/25 12:22:37;;;;;;;86.63;40.80;;;;;;;3.69;100.00;103432.06;6272514;22;20031;-80
2022/01/25 12:25:32;;;;;;;94.80;41.08;;;;;;;3.69;100.00;103421.63;6235745;22;20152;-81
2022/01/25 12:28:09;;;;;;;83.72;40.78;;;;;;;3.70;100.00;103423.41;6227361;22;20326;-80
2022/01/25 12:30:43;;;;;;;93.50;42.17;;;;;;;3.68;100.00;103418.09;6270365;22;20720;-81
2022/01/25 12:33:26;;;;;;;88.10;40.45;;;;;;;3.69;100.00;103419.03;6272226;22;20524;-81
2022/01/25 12:36:00;;;;;;;97.68;42.50;;;;;;;3.69;100.00;103419.91;6274007;22;20031;-81
2022/01/25 12:38:43;;;;;;;87.30;41.03;;;;;;;3.68;100.00;103412.88;6272188;22;20033;-80
2022/01/25 12:41:25;;;;;;;93.00;42.22;;;;;;;3.70;100.00;103415.59;6265643;22;20019;-79
2022/01/25 12:43:59;;;;;;;87.57;42.60;;;;;;;3.70;100.00;103416.53;6200056;22;20029;-79
2022/01/25 12:46:29;;;;;;;87.57;40.15;;;;;;;3.69;100.00;103417.31;6244971;22;20412;-79
2022/01/25 12:49:20;;;;;;;99.53;43.38;;;;;;;3.70;100.00;103415.59;6262905;22;20023;-80
2022/01/25 12:51:52;;;;;;;91.70;42.05;;;;;;;3.72;100.00;103414.00;6271331;22;20023;-80
2022/01/25 12:54:25;;;;;;;85.63;40.33;;;;;;;3.73;100.00;103413.22;6252281;22;20026;-80
2022/01/25 12:56:57;;;;;;;97.72;43.33;;;;;;;3.75;100.00;103414.25;6264501;22;20426;-81
2022/01/25 12:59:29;;;;;;;92.43;41.10;;;;;;;3.75;100.00;103408.13;6268742;22;20024;-80
2022/01/25 13:01:59;;;;;;;88.53;40.72;;;;;;;3.77;100.00;103403.91;6201099;22;20026;-82
2022/01/25 13:04:29;;;;;;;90.55;42.30;;;;;;;3.75;100.00;103405.53;6241027;22;20414;-81